sensor_id;sensor_type;location;lat;lon;timestamp;P1;durP1;ratioP1;P2;durP2;ratioP2
61635;SDS011;59438;45.014;39.006;2023-03-20T00:02:09;47.53;;;12.77;;
61635;SDS011;59438;45.014;39.006;2023-03-20T00:04:43;59.88;;;12.82;;
61635;SDS011;59438;45.014;39.006;2023-03-20T00:07:10;55.35;;;13.15;;
61635;SDS011;59438;45.014;39.006;2023-03-20T00:09:36;46.13;;;12.88;;
61635;SDS011;59438;45.014;39.006;2023-03-20T00:12:03;54.00;;;12.82;;
61635;SDS011;59438;45.014;39.006;2023-03-20T00:14:29;51.25;;;12.80;;
61635;SDS011;59438;45.014;39.006;2023-03-20T00:16:56;60.42;;;13.63;;
61635;SDS011;59438;45.014;39.006;2023-03-20T00:19:25;42.60;;;12.48;;
61635;SDS011;59438;45.014;39.006;2023-03-20T00:21:52;48.47;;;12.93;;
61635;SDS011;59438;45.014;39.006;2023-03-20T00:24:20;44.90;;;12.32;;
61635;SDS011;59438;45.014;39.006;2023-03-20T00:26:47;55.90;;;12.98;;
61635;SDS011;59438;45.014;39.006;2023-03-20T00:29:17;44.35;;;11.88;;
61635;SDS011;59438;45.014;39.006;2023-03-20T00:31:46;38.83;;;12.15;;
61635;SDS011;59438;45.014;39.006;2023-03-20T00:34:14;51.85;;;12.57;;
61635;SDS011;59438;45.014;39.006;2023-03-20T00:36:43;52.35;;;12.20;;
61635;SDS011;59438;45.014;39.006;2023-03-20T00:39:10;43.90;;;11.88;;
61635;SDS011;59438;45.014;39.006;2023-03-20T00:41:38;43.97;;;11.45;;
61635;SDS011;59438;45.014;39.006;2023-03-20T00:44:13;61.38;;;12.48;;
61635;SDS011;59438;45.014;39.006;2023-03-20T00:46:47;37.60;;;11.63;;
61635;SDS011;59438;45.014;39.006;2023-03-20T00:49:16;48.67;;;12.00;;
61635;SDS011;59438;45.014;39.006;2023-03-20T00:51:45;54.72;;;11.82;;
61635;SDS011;59438;45.014;39.006;2023-03-20T00:54:12;44.65;;;11.30;;
61635;SDS011;59438;45.014;39.006;2023-03-20T00:56:40;45.45;;;12.10;;
61635;SDS011;59438;45.014;39.006;2023-03-20T00:59:12;41.50;;;11.48;;
61635;SDS011;59438;45.014;39.006;2023-03-20T01:01:41;50.42;;;12.70;;
61635;SDS011;59438;45.014;39.006;2023-03-20T01:04:08;55.00;;;11.95;;
61635;SDS011;59438;45.014;39.006;2023-03-20T01:06:37;52.00;;;11.07;;
61635;SDS011;59438;45.014;39.006;2023-03-20T01:09:05;59.45;;;10.95;;
61635;SDS011;59438;45.014;39.006;2023-03-20T01:11:31;44.00;;;11.60;;
61635;SDS011;59438;45.014;39.006;2023-03-20T01:13:58;58.25;;;11.93;;
61635;SDS011;59438;45.014;39.006;2023-03-20T01:16:25;43.85;;;10.35;;
61635;SDS011;59438;45.014;39.006;2023-03-20T01:18:51;43.95;;;10.98;;
61635;SDS011;59438;45.014;39.006;2023-03-20T01:21:18;39.05;;;10.80;;
61635;SDS011;59438;45.014;39.006;2023-03-20T01:23:45;49.03;;;11.23;;
61635;SDS011;59438;45.014;39.006;2023-03-20T01:26:21;44.17;;;11.32;;
61635;SDS011;59438;45.014;39.006;2023-03-20T01:28:51;38.80;;;10.18;;
61635;SDS011;59438;45.014;39.006;2023-03-20T01:31:18;43.22;;;10.00;;
61635;SDS011;59438;45.014;39.006;2023-03-20T01:33:44;40.55;;;10.88;;
61635;SDS011;59438;45.014;39.006;2023-03-20T01:36:11;52.22;;;12.02;;
61635;SDS011;59438;45.014;39.006;2023-03-20T01:38:38;45.58;;;11.35;;
61635;SDS011;59438;45.014;39.006;2023-03-20T01:41:06;43.85;;;11.18;;
61635;SDS011;59438;45.014;39.006;2023-03-20T01:43:38;50.00;;;11.18;;
61635;SDS011;59438;45.014;39.006;2023-03-20T01:46:12;43.65;;;11.57;;
61635;SDS011;59438;45.014;39.006;2023-03-20T01:48:55;46.33;;;11.18;;
61635;SDS011;59438;45.014;39.006;2023-03-20T01:51:25;48.55;;;11.18;;
61635;SDS011;59438;45.014;39.006;2023-03-20T01:53:53;47.85;;;12.30;;
61635;SDS011;59438;45.014;39.006;2023-03-20T01:56:23;49.67;;;11.00;;
61635;SDS011;59438;45.014;39.006;2023-03-20T01:58:52;44.35;;;11.40;;
61635;SDS011;59438;45.014;39.006;2023-03-20T02:01:25;44.40;;;11.48;;
61635;SDS011;59438;45.014;39.006;2023-03-20T02:03:52;51.33;;;10.60;;
61635;SDS011;59438;45.014;39.006;2023-03-20T02:06:19;36.13;;;12.25;;
61635;SDS011;59438;45.014;39.006;2023-03-20T02:08:48;38.70;;;11.15;;
61635;SDS011;59438;45.014;39.006;2023-03-20T02:11:17;42.22;;;11.27;;
61635;SDS011;59438;45.014;39.006;2023-03-20T02:13:45;52.92;;;12.43;;
61635;SDS011;59438;45.014;39.006;2023-03-20T02:16:14;46.42;;;11.68;;
61635;SDS011;59438;45.014;39.006;2023-03-20T02:18:42;40.78;;;10.82;;
61635;SDS011;59438;45.014;39.006;2023-03-20T02:27:12;41.38;;;11.55;;
61635;SDS011;59438;45.014;39.006;2023-03-20T02:36:13;43.22;;;13.10;;
61635;SDS011;59438;45.014;39.006;2023-03-20T02:38:57;46.55;;;11.98;;
61635;SDS011;59438;45.014;39.006;2023-03-20T02:41:42;60.72;;;12.68;;
61635;SDS011;59438;45.014;39.006;2023-03-20T02:44:16;49.63;;;11.57;;
61635;SDS011;59438;45.014;39.006;2023-03-20T02:46:49;41.30;;;12.32;;
61635;SDS011;59438;45.014;39.006;2023-03-20T02:49:23;53.50;;;12.38;;
61635;SDS011;59438;45.014;39.006;2023-03-20T02:52:03;46.20;;;12.02;;
61635;SDS011;59438;45.014;39.006;2023-03-20T02:54:38;55.67;;;13.20;;
61635;SDS011;59438;45.014;39.006;2023-03-20T02:57:09;46.45;;;12.38;;
61635;SDS011;59438;45.014;39.006;2023-03-20T02:59:42;47.35;;;11.82;;
61635;SDS011;59438;45.014;39.006;2023-03-20T03:02:17;42.03;;;12.15;;
61635;SDS011;59438;45.014;39.006;2023-03-20T03:04:47;44.95;;;12.75;;
61635;SDS011;59438;45.014;39.006;2023-03-20T03:07:16;44.22;;;12.18;;
61635;SDS011;59438;45.014;39.006;2023-03-20T03:09:49;59.17;;;13.25;;
61635;SDS011;59438;45.014;39.006;2023-03-20T03:12:18;39.33;;;12.85;;
61635;SDS011;59438;45.014;39.006;2023-03-20T03:14:48;50.67;;;13.75;;
61635;SDS011;59438;45.014;39.006;2023-03-20T03:17:18;52.70;;;13.48;;
61635;SDS011;59438;45.014;39.006;2023-03-20T03:19:48;41.33;;;13.10;;
61635;SDS011;59438;45.014;39.006;2023-03-20T03:22:17;41.70;;;12.65;;
61635;SDS011;59438;45.014;39.006;2023-03-20T03:24:45;46.40;;;12.23;;
61635;SDS011;59438;45.014;39.006;2023-03-20T03:27:16;41.67;;;13.05;;
61635;SDS011;59438;45.014;39.006;2023-03-20T03:29:47;54.70;;;14.18;;
61635;SDS011;59438;45.014;39.006;2023-03-20T03:32:20;57.90;;;13.32;;
61635;SDS011;59438;45.014;39.006;2023-03-20T03:34:49;44.90;;;12.93;;
61635;SDS011;59438;45.014;39.006;2023-03-20T03:37:17;51.47;;;13.48;;
61635;SDS011;59438;45.014;39.006;2023-03-20T03:39:52;54.03;;;13.10;;
61635;SDS011;59438;45.014;39.006;2023-03-20T03:42:28;47.88;;;12.85;;
61635;SDS011;59438;45.014;39.006;2023-03-20T03:44:58;47.05;;;13.88;;
61635;SDS011;59438;45.014;39.006;2023-03-20T03:47:29;34.05;;;12.73;;
61635;SDS011;59438;45.014;39.006;2023-03-20T03:50:00;48.10;;;13.07;;
61635;SDS011;59438;45.014;39.006;2023-03-20T03:52:29;51.92;;;13.52;;
61635;SDS011;59438;45.014;39.006;2023-03-20T03:54:58;43.85;;;13.45;;
61635;SDS011;59438;45.014;39.006;2023-03-20T03:57:30;44.25;;;13.52;;
61635;SDS011;59438;45.014;39.006;2023-03-20T04:00:02;53.13;;;13.63;;
61635;SDS011;59438;45.014;39.006;2023-03-20T04:02:31;46.78;;;14.20;;
61635;SDS011;59438;45.014;39.006;2023-03-20T04:04:58;46.42;;;12.95;;
61635;SDS011;59438;45.014;39.006;2023-03-20T04:07:28;43.15;;;13.30;;
61635;SDS011;59438;45.014;39.006;2023-03-20T04:09:54;41.95;;;14.07;;
61635;SDS011;59438;45.014;39.006;2023-03-20T04:12:32;50.15;;;13.77;;
61635;SDS011;59438;45.014;39.006;2023-03-20T04:15:00;47.78;;;13.65;;
61635;SDS011;59438;45.014;39.006;2023-03-20T04:17:27;47.35;;;14.43;;
61635;SDS011;59438;45.014;39.006;2023-03-20T04:19:53;40.15;;;13.27;;
61635;SDS011;59438;45.014;39.006;2023-03-20T04:22:20;52.22;;;13.63;;
61635;SDS011;59438;45.014;39.006;2023-03-20T04:24:46;34.17;;;12.70;;
61635;SDS011;59438;45.014;39.006;2023-03-20T04:27:12;46.58;;;13.07;;
61635;SDS011;59438;45.014;39.006;2023-03-20T04:29:40;45.67;;;13.23;;
61635;SDS011;59438;45.014;39.006;2023-03-20T04:32:06;35.97;;;13.52;;
61635;SDS011;59438;45.014;39.006;2023-03-20T04:34:33;47.10;;;14.13;;
61635;SDS011;59438;45.014;39.006;2023-03-20T04:36:59;47.83;;;13.93;;
61635;SDS011;59438;45.014;39.006;2023-03-20T04:39:26;45.95;;;13.15;;
61635;SDS011;59438;45.014;39.006;2023-03-20T04:41:52;39.72;;;12.70;;
61635;SDS011;59438;45.014;39.006;2023-03-20T04:44:19;40.85;;;13.35;;
61635;SDS011;59438;45.014;39.006;2023-03-20T04:46:46;45.13;;;13.48;;
61635;SDS011;59438;45.014;39.006;2023-03-20T04:49:13;39.10;;;14.00;;
61635;SDS011;59438;45.014;39.006;2023-03-20T04:51:39;37.45;;;13.52;;
61635;SDS011;59438;45.014;39.006;2023-03-20T04:54:05;51.60;;;13.88;;
61635;SDS011;59438;45.014;39.006;2023-03-20T04:56:32;38.22;;;12.60;;
61635;SDS011;59438;45.014;39.006;2023-03-20T04:58:58;46.55;;;13.70;;
61635;SDS011;59438;45.014;39.006;2023-03-20T05:01:24;52.58;;;13.65;;
61635;SDS011;59438;45.014;39.006;2023-03-20T05:03:52;44.42;;;13.82;;
61635;SDS011;59438;45.014;39.006;2023-03-20T05:06:19;48.20;;;13.73;;
61635;SDS011;59438;45.014;39.006;2023-03-20T05:08:45;41.35;;;13.13;;
61635;SDS011;59438;45.014;39.006;2023-03-20T05:11:11;51.58;;;14.95;;
61635;SDS011;59438;45.014;39.006;2023-03-20T05:13:38;45.00;;;13.23;;
61635;SDS011;59438;45.014;39.006;2023-03-20T05:16:04;42.70;;;13.55;;
61635;SDS011;59438;45.014;39.006;2023-03-20T05:18:31;35.08;;;12.73;;
61635;SDS011;59438;45.014;39.006;2023-03-20T05:20:59;48.45;;;13.75;;
61635;SDS011;59438;45.014;39.006;2023-03-20T05:23:25;43.72;;;12.77;;
61635;SDS011;59438;45.014;39.006;2023-03-20T05:25:51;42.85;;;12.80;;
61635;SDS011;59438;45.014;39.006;2023-03-20T05:28:18;45.03;;;13.20;;
61635;SDS011;59438;45.014;39.006;2023-03-20T05:30:44;44.13;;;13.38;;
61635;SDS011;59438;45.014;39.006;2023-03-20T05:33:10;52.97;;;13.38;;
61635;SDS011;59438;45.014;39.006;2023-03-20T05:35:37;39.95;;;13.73;;
61635;SDS011;59438;45.014;39.006;2023-03-20T05:38:05;35.50;;;12.75;;
61635;SDS011;59438;45.014;39.006;2023-03-20T05:40:31;55.35;;;12.68;;
61635;SDS011;59438;45.014;39.006;2023-03-20T05:42:57;47.63;;;13.02;;
61635;SDS011;59438;45.014;39.006;2023-03-20T05:45:24;43.75;;;14.32;;
61635;SDS011;59438;45.014;39.006;2023-03-20T05:47:50;48.30;;;14.27;;
61635;SDS011;59438;45.014;39.006;2023-03-20T05:50:16;45.15;;;12.82;;
61635;SDS011;59438;45.014;39.006;2023-03-20T05:52:45;42.63;;;13.00;;
61635;SDS011;59438;45.014;39.006;2023-03-20T05:55:13;40.20;;;12.73;;
61635;SDS011;59438;45.014;39.006;2023-03-20T05:57:39;73.30;;;13.80;;
61635;SDS011;59438;45.014;39.006;2023-03-20T06:00:06;48.08;;;12.77;;
61635;SDS011;59438;45.014;39.006;2023-03-20T06:02:34;49.10;;;13.93;;
61635;SDS011;59438;45.014;39.006;2023-03-20T06:05:01;41.80;;;12.38;;
61635;SDS011;59438;45.014;39.006;2023-03-20T06:07:27;49.45;;;13.23;;
61635;SDS011;59438;45.014;39.006;2023-03-20T06:09:53;48.90;;;12.95;;
61635;SDS011;59438;45.014;39.006;2023-03-20T06:12:21;43.42;;;12.27;;
61635;SDS011;59438;45.014;39.006;2023-03-20T06:14:48;47.42;;;13.73;;
61635;SDS011;59438;45.014;39.006;2023-03-20T06:17:14;57.65;;;13.07;;
61635;SDS011;59438;45.014;39.006;2023-03-20T06:19:40;59.47;;;13.20;;
61635;SDS011;59438;45.014;39.006;2023-03-20T06:22:07;53.42;;;13.52;;
61635;SDS011;59438;45.014;39.006;2023-03-20T06:24:33;54.10;;;13.25;;
61635;SDS011;59438;45.014;39.006;2023-03-20T06:26:59;50.35;;;13.75;;
61635;SDS011;59438;45.014;39.006;2023-03-20T06:29:27;51.83;;;13.18;;
61635;SDS011;59438;45.014;39.006;2023-03-20T06:31:54;47.75;;;13.73;;
61635;SDS011;59438;45.014;39.006;2023-03-20T06:34:20;49.28;;;13.50;;
61635;SDS011;59438;45.014;39.006;2023-03-20T06:36:46;45.92;;;13.00;;
61635;SDS011;59438;45.014;39.006;2023-03-20T06:39:13;57.03;;;13.38;;
61635;SDS011;59438;45.014;39.006;2023-03-20T06:41:39;50.53;;;14.20;;
61635;SDS011;59438;45.014;39.006;2023-03-20T06:44:05;42.58;;;13.45;;
61635;SDS011;59438;45.014;39.006;2023-03-20T06:46:33;50.95;;;13.45;;
61635;SDS011;59438;45.014;39.006;2023-03-20T06:49:00;47.28;;;13.13;;
61635;SDS011;59438;45.014;39.006;2023-03-20T06:51:26;59.60;;;14.63;;
61635;SDS011;59438;45.014;39.006;2023-03-20T06:53:52;51.42;;;14.20;;
61635;SDS011;59438;45.014;39.006;2023-03-20T06:56:19;63.53;;;14.02;;
61635;SDS011;59438;45.014;39.006;2023-03-20T06:58:45;61.08;;;13.73;;
61635;SDS011;59438;45.014;39.006;2023-03-20T07:01:12;50.05;;;13.77;;
61635;SDS011;59438;45.014;39.006;2023-03-20T07:03:41;51.72;;;14.45;;
61635;SDS011;59438;45.014;39.006;2023-03-20T07:06:08;65.68;;;15.65;;
61635;SDS011;59438;45.014;39.006;2023-03-20T07:08:34;55.78;;;13.95;;
61635;SDS011;59438;45.014;39.006;2023-03-20T07:11:01;56.42;;;14.13;;
61635;SDS011;59438;45.014;39.006;2023-03-20T07:13:27;58.28;;;14.82;;
61635;SDS011;59438;45.014;39.006;2023-03-20T07:15:53;45.33;;;13.85;;
61635;SDS011;59438;45.014;39.006;2023-03-20T07:18:20;49.47;;;13.35;;
61635;SDS011;59438;45.014;39.006;2023-03-20T07:20:47;60.10;;;14.52;;
61635;SDS011;59438;45.014;39.006;2023-03-20T07:23:16;52.65;;;14.48;;
61635;SDS011;59438;45.014;39.006;2023-03-20T07:25:42;61.70;;;15.80;;
61635;SDS011;59438;45.014;39.006;2023-03-20T07:28:09;55.22;;;14.48;;
61635;SDS011;59438;45.014;39.006;2023-03-20T07:30:35;52.05;;;14.23;;
61635;SDS011;59438;45.014;39.006;2023-03-20T07:33:01;63.60;;;14.07;;
61635;SDS011;59438;45.014;39.006;2023-03-20T07:35:28;52.97;;;15.00;;
61635;SDS011;59438;45.014;39.006;2023-03-20T07:37:56;53.60;;;14.93;;
61635;SDS011;59438;45.014;39.006;2023-03-20T07:40:22;60.55;;;15.00;;
61635;SDS011;59438;45.014;39.006;2023-03-20T07:42:48;71.75;;;15.10;;
61635;SDS011;59438;45.014;39.006;2023-03-20T07:45:15;58.58;;;15.02;;
61635;SDS011;59438;45.014;39.006;2023-03-20T07:47:41;57.70;;;14.73;;
61635;SDS011;59438;45.014;39.006;2023-03-20T07:50:08;49.45;;;14.80;;
61635;SDS011;59438;45.014;39.006;2023-03-20T07:52:35;61.00;;;15.43;;
61635;SDS011;59438;45.014;39.006;2023-03-20T07:55:03;53.90;;;14.60;;
61635;SDS011;59438;45.014;39.006;2023-03-20T07:57:30;57.50;;;14.70;;
61635;SDS011;59438;45.014;39.006;2023-03-20T07:59:56;51.25;;;15.32;;
61635;SDS011;59438;45.014;39.006;2023-03-20T08:02:22;66.68;;;15.48;;
61635;SDS011;59438;45.014;39.006;2023-03-20T08:04:49;52.55;;;15.32;;
61635;SDS011;59438;45.014;39.006;2023-03-20T08:07:15;67.90;;;15.48;;
61635;SDS011;59438;45.014;39.006;2023-03-20T08:09:41;55.22;;;15.45;;
61635;SDS011;59438;45.014;39.006;2023-03-20T08:12:09;59.78;;;14.75;;
61635;SDS011;59438;45.014;39.006;2023-03-20T08:14:36;50.45;;;14.52;;
61635;SDS011;59438;45.014;39.006;2023-03-20T08:17:02;52.50;;;15.23;;
61635;SDS011;59438;45.014;39.006;2023-03-20T08:19:28;58.90;;;15.80;;
61635;SDS011;59438;45.014;39.006;2023-03-20T08:21:55;58.92;;;16.67;;
61635;SDS011;59438;45.014;39.006;2023-03-20T08:24:21;58.78;;;15.10;;
61635;SDS011;59438;45.014;39.006;2023-03-20T08:26:47;55.33;;;15.18;;
61635;SDS011;59438;45.014;39.006;2023-03-20T08:29:15;51.35;;;15.50;;
61635;SDS011;59438;45.014;39.006;2023-03-20T08:31:42;69.97;;;15.15;;
61635;SDS011;59438;45.014;39.006;2023-03-20T08:34:08;67.80;;;15.75;;
61635;SDS011;59438;45.014;39.006;2023-03-20T08:36:34;53.33;;;14.45;;
61635;SDS011;59438;45.014;39.006;2023-03-20T08:39:01;54.80;;;15.38;;
61635;SDS011;59438;45.014;39.006;2023-03-20T08:41:27;55.83;;;14.73;;
61635;SDS011;59438;45.014;39.006;2023-03-20T08:43:54;54.83;;;14.65;;
61635;SDS011;59438;45.014;39.006;2023-03-20T08:46:21;54.25;;;16.30;;
61635;SDS011;59438;45.014;39.006;2023-03-20T08:48:48;57.88;;;16.20;;
61635;SDS011;59438;45.014;39.006;2023-03-20T08:51:14;92.03;;;16.42;;
61635;SDS011;59438;45.014;39.006;2023-03-20T08:53:40;62.72;;;16.52;;
61635;SDS011;59438;45.014;39.006;2023-03-20T08:56:07;55.50;;;21.00;;
61635;SDS011;59438;45.014;39.006;2023-03-20T08:58:35;55.50;;;15.55;;
61635;SDS011;59438;45.014;39.006;2023-03-20T09:01:02;51.38;;;16.45;;
61635;SDS011;59438;45.014;39.006;2023-03-20T09:03:31;51.30;;;15.68;;
61635;SDS011;59438;45.014;39.006;2023-03-20T09:05:57;50.60;;;14.77;;
61635;SDS011;59438;45.014;39.006;2023-03-20T09:08:24;47.03;;;14.75;;
61635;SDS011;59438;45.014;39.006;2023-03-20T09:10:50;57.67;;;14.52;;
61635;SDS011;59438;45.014;39.006;2023-03-20T09:13:17;60.42;;;14.65;;
61635;SDS011;59438;45.014;39.006;2023-03-20T09:15:43;52.45;;;15.25;;
61635;SDS011;59438;45.014;39.006;2023-03-20T09:18:13;59.42;;;16.38;;
61635;SDS011;59438;45.014;39.006;2023-03-20T09:20:43;55.83;;;15.68;;
61635;SDS011;59438;45.014;39.006;2023-03-20T09:23:10;57.13;;;15.98;;
61635;SDS011;59438;45.014;39.006;2023-03-20T09:25:36;49.47;;;16.15;;
61635;SDS011;59438;45.014;39.006;2023-03-20T09:28:03;51.38;;;16.58;;
61635;SDS011;59438;45.014;39.006;2023-03-20T09:30:29;43.45;;;15.27;;
61635;SDS011;59438;45.014;39.006;2023-03-20T09:32:55;50.92;;;15.00;;
61635;SDS011;59438;45.014;39.006;2023-03-20T09:35:22;47.65;;;14.55;;
61635;SDS011;59438;45.014;39.006;2023-03-20T09:37:50;52.50;;;14.07;;
61635;SDS011;59438;45.014;39.006;2023-03-20T09:40:19;48.45;;;13.68;;
61635;SDS011;59438;45.014;39.006;2023-03-20T09:42:52;51.88;;;14.15;;
61635;SDS011;59438;45.014;39.006;2023-03-20T09:45:33;45.70;;;13.93;;
61635;SDS011;59438;45.014;39.006;2023-03-20T09:48:07;49.10;;;13.77;;
61635;SDS011;59438;45.014;39.006;2023-03-20T09:50:39;38.60;;;14.88;;
61635;SDS011;59438;45.014;39.006;2023-03-20T09:53:14;44.70;;;13.20;;
61635;SDS011;59438;45.014;39.006;2023-03-20T09:55:45;42.33;;;13.00;;
61635;SDS011;59438;45.014;39.006;2023-03-20T09:58:14;42.85;;;13.05;;
61635;SDS011;59438;45.014;39.006;2023-03-20T10:00:45;55.05;;;13.38;;
61635;SDS011;59438;45.014;39.006;2023-03-20T10:03:16;47.55;;;13.30;;
61635;SDS011;59438;45.014;39.006;2023-03-20T10:05:45;38.40;;;11.95;;
61635;SDS011;59438;45.014;39.006;2023-03-20T10:08:18;49.03;;;12.38;;
61635;SDS011;59438;45.014;39.006;2023-03-20T10:10:49;37.90;;;13.40;;
61635;SDS011;59438;45.014;39.006;2023-03-20T10:13:38;46.67;;;13.35;;
61635;SDS011;59438;45.014;39.006;2023-03-20T10:16:21;48.28;;;13.23;;
61635;SDS011;59438;45.014;39.006;2023-03-20T10:18:58;34.70;;;13.00;;
61635;SDS011;59438;45.014;39.006;2023-03-20T10:21:30;42.67;;;12.90;;
61635;SDS011;59438;45.014;39.006;2023-03-20T10:24:05;33.33;;;12.95;;
61635;SDS011;59438;45.014;39.006;2023-03-20T10:26:39;36.15;;;11.52;;
61635;SDS011;59438;45.014;39.006;2023-03-20T10:29:06;46.28;;;12.73;;
61635;SDS011;59438;45.014;39.006;2023-03-20T10:31:43;43.72;;;12.48;;
61635;SDS011;59438;45.014;39.006;2023-03-20T10:34:19;45.63;;;12.75;;
61635;SDS011;59438;45.014;39.006;2023-03-20T10:37:07;43.47;;;12.13;;
61635;SDS011;59438;45.014;39.006;2023-03-20T10:39:52;46.35;;;12.82;;
61635;SDS011;59438;45.014;39.006;2023-03-20T10:42:26;50.97;;;12.20;;
61635;SDS011;59438;45.014;39.006;2023-03-20T10:44:56;40.95;;;12.85;;
61635;SDS011;59438;45.014;39.006;2023-03-20T10:49:56;39.33;;;11.65;;
61635;SDS011;59438;45.014;39.006;2023-03-20T10:52:27;48.00;;;13.43;;
61635;SDS011;59438;45.014;39.006;2023-03-20T10:54:58;44.03;;;11.97;;
61635;SDS011;59438;45.014;39.006;2023-03-20T10:57:28;40.33;;;11.73;;
61635;SDS011;59438;45.014;39.006;2023-03-20T10:59:58;47.55;;;12.10;;
61635;SDS011;59438;45.014;39.006;2023-03-20T11:02:26;44.45;;;12.32;;
61635;SDS011;59438;45.014;39.006;2023-03-20T11:04:54;44.70;;;13.27;;
61635;SDS011;59438;45.014;39.006;2023-03-20T11:07:22;45.28;;;13.48;;
61635;SDS011;59438;45.014;39.006;2023-03-20T11:12:35;42.08;;;12.30;;
61635;SDS011;59438;45.014;39.006;2023-03-20T11:15:03;51.70;;;13.13;;
61635;SDS011;59438;45.014;39.006;2023-03-20T11:17:54;49.20;;;14.25;;
61635;SDS011;59438;45.014;39.006;2023-03-20T11:20:23;53.53;;;14.48;;
61635;SDS011;59438;45.014;39.006;2023-03-20T11:22:56;60.13;;;15.25;;
61635;SDS011;59438;45.014;39.006;2023-03-20T11:25:29;60.53;;;14.18;;
61635;SDS011;59438;45.014;39.006;2023-03-20T11:31:01;49.05;;;14.30;;
61635;SDS011;59438;45.014;39.006;2023-03-20T11:33:30;62.63;;;14.05;;
61635;SDS011;59438;45.014;39.006;2023-03-20T11:35:58;56.00;;;13.95;;
61635;SDS011;59438;45.014;39.006;2023-03-20T11:38:25;44.50;;;14.20;;
61635;SDS011;59438;45.014;39.006;2023-03-20T11:40:55;49.72;;;15.40;;
61635;SDS011;59438;45.014;39.006;2023-03-20T11:43:24;57.10;;;14.90;;
61635;SDS011;59438;45.014;39.006;2023-03-20T11:45:53;51.08;;;15.10;;
61635;SDS011;59438;45.014;39.006;2023-03-20T11:48:22;60.78;;;14.52;;
61635;SDS011;59438;45.014;39.006;2023-03-20T11:50:51;56.63;;;14.65;;
61635;SDS011;59438;45.014;39.006;2023-03-20T11:53:25;51.70;;;14.68;;
61635;SDS011;59438;45.014;39.006;2023-03-20T11:56:06;46.95;;;14.80;;
61635;SDS011;59438;45.014;39.006;2023-03-20T11:58:36;50.83;;;15.32;;
61635;SDS011;59438;45.014;39.006;2023-03-20T12:01:11;50.67;;;15.05;;
61635;SDS011;59438;45.014;39.006;2023-03-20T12:03:39;60.10;;;16.05;;
61635;SDS011;59438;45.014;39.006;2023-03-20T12:06:14;43.47;;;15.35;;
61635;SDS011;59438;45.014;39.006;2023-03-20T12:08:43;62.72;;;16.40;;
61635;SDS011;59438;45.014;39.006;2023-03-20T12:11:21;47.38;;;14.50;;
61635;SDS011;59438;45.014;39.006;2023-03-20T12:13:57;48.70;;;14.82;;
61635;SDS011;59438;45.014;39.006;2023-03-20T12:16:26;53.08;;;15.05;;
61635;SDS011;59438;45.014;39.006;2023-03-20T12:18:53;50.25;;;14.35;;
61635;SDS011;59438;45.014;39.006;2023-03-20T12:21:21;50.17;;;14.65;;
61635;SDS011;59438;45.014;39.006;2023-03-20T12:23:52;48.60;;;13.80;;
61635;SDS011;59438;45.014;39.006;2023-03-20T12:26:26;40.05;;;12.93;;
61635;SDS011;59438;45.014;39.006;2023-03-20T12:28:59;46.03;;;14.13;;
61635;SDS011;59438;45.014;39.006;2023-03-20T12:31:31;58.47;;;14.00;;
61635;SDS011;59438;45.014;39.006;2023-03-20T12:34:05;41.25;;;16.27;;
61635;SDS011;59438;45.014;39.006;2023-03-20T12:36:37;44.33;;;17.35;;
61635;SDS011;59438;45.014;39.006;2023-03-20T12:39:09;60.03;;;23.48;;
61635;SDS011;59438;45.014;39.006;2023-03-20T12:41:42;61.85;;;22.08;;
61635;SDS011;59438;45.014;39.006;2023-03-20T12:44:19;48.03;;;14.50;;
61635;SDS011;59438;45.014;39.006;2023-03-20T12:47:00;35.97;;;14.68;;
61635;SDS011;59438;45.014;39.006;2023-03-20T12:49:38;39.53;;;14.77;;
61635;SDS011;59438;45.014;39.006;2023-03-20T12:52:14;38.10;;;13.00;;
61635;SDS011;59438;45.014;39.006;2023-03-20T12:54:54;45.58;;;13.20;;
61635;SDS011;59438;45.014;39.006;2023-03-20T12:57:37;53.35;;;14.80;;
61635;SDS011;59438;45.014;39.006;2023-03-20T13:00:12;51.22;;;15.18;;
61635;SDS011;59438;45.014;39.006;2023-03-20T13:02:55;56.78;;;15.40;;
61635;SDS011;59438;45.014;39.006;2023-03-20T13:05:33;59.90;;;14.13;;
61635;SDS011;59438;45.014;39.006;2023-03-20T13:08:11;42.47;;;13.15;;
61635;SDS011;59438;45.014;39.006;2023-03-20T13:10:52;46.63;;;14.45;;
61635;SDS011;59438;45.014;39.006;2023-03-20T13:13:29;49.00;;;14.10;;
61635;SDS011;59438;45.014;39.006;2023-03-20T13:16:03;48.85;;;13.10;;
61635;SDS011;59438;45.014;39.006;2023-03-20T13:18:46;48.40;;;14.20;;
61635;SDS011;59438;45.014;39.006;2023-03-20T13:21:18;56.42;;;14.10;;
61635;SDS011;59438;45.014;39.006;2023-03-20T13:23:53;46.17;;;14.02;;
61635;SDS011;59438;45.014;39.006;2023-03-20T13:26:29;55.85;;;14.13;;
61635;SDS011;59438;45.014;39.006;2023-03-20T13:29:04;53.38;;;15.52;;
61635;SDS011;59438;45.014;39.006;2023-03-20T13:31:39;53.88;;;14.57;;
61635;SDS011;59438;45.014;39.006;2023-03-20T13:34:18;54.05;;;15.15;;
61635;SDS011;59438;45.014;39.006;2023-03-20T13:36:56;58.75;;;15.45;;
61635;SDS011;59438;45.014;39.006;2023-03-20T13:39:36;50.95;;;15.55;;
61635;SDS011;59438;45.014;39.006;2023-03-20T13:42:09;54.47;;;16.42;;
61635;SDS011;59438;45.014;39.006;2023-03-20T13:44:39;65.78;;;16.33;;
61635;SDS011;59438;45.014;39.006;2023-03-20T13:47:09;62.53;;;16.88;;
61635;SDS011;59438;45.014;39.006;2023-03-20T13:49:44;68.68;;;17.00;;
61635;SDS011;59438;45.014;39.006;2023-03-20T13:52:17;77.68;;;18.27;;
61635;SDS011;59438;45.014;39.006;2023-03-20T13:54:50;64.00;;;18.60;;
61635;SDS011;59438;45.014;39.006;2023-03-20T13:57:34;73.22;;;17.13;;
61635;SDS011;59438;45.014;39.006;2023-03-20T14:00:16;62.97;;;17.25;;
61635;SDS011;59438;45.014;39.006;2023-03-20T14:02:52;78.22;;;19.90;;
61635;SDS011;59438;45.014;39.006;2023-03-20T14:05:37;61.67;;;18.92;;
61635;SDS011;59438;45.014;39.006;2023-03-20T14:08:21;87.28;;;18.38;;
61635;SDS011;59438;45.014;39.006;2023-03-20T14:10:54;58.55;;;17.17;;
61635;SDS011;59438;45.014;39.006;2023-03-20T14:13:29;72.35;;;19.23;;
61635;SDS011;59438;45.014;39.006;2023-03-20T14:15:59;64.72;;;17.55;;
61635;SDS011;59438;45.014;39.006;2023-03-20T14:18:27;80.15;;;18.17;;
61635;SDS011;59438;45.014;39.006;2023-03-20T14:20:56;55.45;;;16.38;;
61635;SDS011;59438;45.014;39.006;2023-03-20T14:23:28;61.65;;;16.95;;
61635;SDS011;59438;45.014;39.006;2023-03-20T14:26:03;56.47;;;17.08;;
61635;SDS011;59438;45.014;39.006;2023-03-20T14:28:40;56.97;;;15.88;;
61635;SDS011;59438;45.014;39.006;2023-03-20T14:31:12;51.65;;;15.70;;
61635;SDS011;59438;45.014;39.006;2023-03-20T14:33:47;55.63;;;15.27;;
61635;SDS011;59438;45.014;39.006;2023-03-20T14:36:24;63.58;;;15.98;;
61635;SDS011;59438;45.014;39.006;2023-03-20T14:39:02;51.70;;;17.00;;
61635;SDS011;59438;45.014;39.006;2023-03-20T14:41:38;61.20;;;17.17;;
61635;SDS011;59438;45.014;39.006;2023-03-20T14:44:23;51.72;;;16.77;;
61635;SDS011;59438;45.014;39.006;2023-03-20T14:46:59;51.85;;;18.30;;